sensor_id;sensor_type;location;lat;lon;timestamp;pressure;altitude;pressure_sealevel;temperature;humidity
75424;BME280;64005;55.160;36.002;2024-03-23T00:52:47;98166.56;;;3.36;54.53
75424;BME280;64005;55.160;36.002;2024-03-23T00:55:14;98165.13;;;3.38;54.40
75424;BME280;64005;55.160;36.002;2024-03-23T00:57:40;98160.44;;;3.39;54.57
75424;BME280;64005;55.160;36.002;2024-03-23T01:00:08;98162.56;;;3.42;54.74
75424;BME280;64005;55.160;36.002;2024-03-23T01:02:36;98163.88;;;3.44;54.50
75424;BME280;64005;55.160;36.002;2024-03-23T01:05:04;98152.38;;;3.42;54.95
75424;BME280;64005;55.160;36.002;2024-03-23T01:07:30;98148.63;;;3.38;54.96
75424;BME280;64005;55.160;36.002;2024-03-23T01:09:59;98145.38;;;3.36;55.13
75424;BME280;64005;55.160;36.002;2024-03-23T01:12:25;98144.38;;;3.32;55.22
75424;BME280;64005;55.160;36.002;2024-03-23T01:14:52;98140.59;;;3.28;55.47
75424;BME280;64005;55.160;36.002;2024-03-23T01:17:19;98125.44;;;3.31;55.09
75424;BME280;64005;55.160;36.002;2024-03-23T01:19:46;98135.50;;;3.35;55.22
75424;BME280;64005;55.160;36.002;2024-03-23T01:22:12;98133.44;;;3.41;54.81
75424;BME280;64005;55.160;36.002;2024-03-23T01:24:40;98128.59;;;3.38;55.36
75424;BME280;64005;55.160;36.002;2024-03-23T01:27:08;98124.19;;;3.37;55.36
75424;BME280;64005;55.160;36.002;2024-03-23T01:29:35;98124.19;;;3.37;55.28
75424;BME280;64005;55.160;36.002;2024-03-23T01:32:02;98112.91;;;3.38;55.75
75424;BME280;64005;55.160;36.002;2024-03-23T01:34:29;98116.13;;;3.40;55.47
75424;BME280;64005;55.160;36.002;2024-03-23T01:36:55;98116.13;;;3.40;55.45
75424;BME280;64005;55.160;36.002;2024-03-23T01:39:23;98109.22;;;3.43;55.66
75424;BME280;64005;55.160;36.002;2024-03-23T01:41:49;98105.34;;;3.44;55.54
75424;BME280;64005;55.160;36.002;2024-03-23T01:44:18;98099.84;;;3.44;55.95
75424;BME280;64005;55.160;36.002;2024-03-23T01:46:44;98089.47;;;3.41;56.08
75424;BME280;64005;55.160;36.002;2024-03-23T01:49:12;98089.75;;;3.39;55.92
75424;BME280;64005;55.160;36.002;2024-03-23T01:51:39;98089.97;;;3.43;56.05
75424;BME280;64005;55.160;36.002;2024-03-23T01:54:07;98085.28;;;3.43;55.87
75424;BME280;64005;55.160;36.002;2024-03-23T01:56:34;98086.72;;;3.41;56.07
75424;BME280;64005;55.160;36.002;2024-03-23T01:59:01;98082.66;;;3.38;55.98
75424;BME280;64005;55.160;36.002;2024-03-23T02:01:29;98078.47;;;3.41;56.23
75424;BME280;64005;55.160;36.002;2024-03-23T02:03:56;98072.34;;;3.44;56.11
75424;BME280;64005;55.160;36.002;2024-03-23T02:06:24;98063.28;;;3.43;56.36
75424;BME280;64005;55.160;36.002;2024-03-23T02:08:52;98056.66;;;3.44;56.11
75424;BME280;64005;55.160;36.002;2024-03-23T02:11:19;98061.22;;;3.49;56.17
75424;BME280;64005;55.160;36.002;2024-03-23T02:13:46;98043.31;;;3.51;55.79
75424;BME280;64005;55.160;36.002;2024-03-23T02:16:13;98041.38;;;3.52;56.39
75424;BME280;64005;55.160;36.002;2024-03-23T02:18:44;98037.47;;;3.53;56.02
75424;BME280;64005;55.160;36.002;2024-03-23T02:21:10;98036.66;;;3.52;56.13
75424;BME280;64005;55.160;36.002;2024-03-23T02:23:39;98029.84;;;3.50;56.15
75424;BME280;64005;55.160;36.002;2024-03-23T02:26:05;98015.09;;;3.46;56.55
75424;BME280;64005;55.160;36.002;2024-03-23T02:28:32;98022.22;;;3.47;56.09
75424;BME280;64005;55.160;36.002;2024-03-23T02:30:59;98014.78;;;3.47;56.17
75424;BME280;64005;55.160;36.002;2024-03-23T02:33:27;98007.19;;;3.44;56.76
75424;BME280;64005;55.160;36.002;2024-03-23T02:35:56;98003.63;;;3.44;56.24
75424;BME280;64005;55.160;36.002;2024-03-23T02:38:23;97997.81;;;3.45;56.37
75424;BME280;64005;55.160;36.002;2024-03-23T02:40:51;97991.69;;;3.48;56.00
75424;BME280;64005;55.160;36.002;2024-03-23T02:43:18;97993.09;;;3.46;56.57
75424;BME280;64005;55.160;36.002;2024-03-23T02:45:44;98000.19;;;3.38;56.91
75424;BME280;64005;55.160;36.002;2024-03-23T02:48:12;97990.31;;;3.37;56.76
75424;BME280;64005;55.160;36.002;2024-03-23T02:50:38;97987.28;;;3.39;56.56
75424;BME280;64005;55.160;36.002;2024-03-23T02:53:05;97978.53;;;3.37;56.86
75424;BME280;64005;55.160;36.002;2024-03-23T02:55:31;97978.53;;;3.37;57.18
75424;BME280;64005;55.160;36.002;2024-03-23T02:58:01;97961.72;;;3.38;56.45
75424;BME280;64005;55.160;36.002;2024-03-23T03:00:28;97975.00;;;3.45;56.83
75424;BME280;64005;55.160;36.002;2024-03-23T03:02:55;97967.88;;;3.44;56.56
75424;BME280;64005;55.160;36.002;2024-03-23T03:05:21;97961.06;;;3.41;56.63
75424;BME280;64005;55.160;36.002;2024-03-23T03:07:49;97958.00;;;3.43;56.91
75424;BME280;64005;55.160;36.002;2024-03-23T03:10:15;97958.38;;;3.50;56.82
75424;BME280;64005;55.160;36.002;2024-03-23T03:12:43;97946.56;;;3.49;57.01
75424;BME280;64005;55.160;36.002;2024-03-23T03:15:11;97949.63;;;3.48;56.65
75424;BME280;64005;55.160;36.002;2024-03-23T03:17:38;97948.13;;;3.42;57.10
75424;BME280;64005;55.160;36.002;2024-03-23T03:20:05;97939.91;;;3.42;57.09
75424;BME280;64005;55.160;36.002;2024-03-23T03:22:33;97932.75;;;3.41;57.31
75424;BME280;64005;55.160;36.002;2024-03-23T03:25:00;97933.28;;;3.43;56.97
75424;BME280;64005;55.160;36.002;2024-03-23T03:27:30;97923.09;;;3.43;57.28
75424;BME280;64005;55.160;36.002;2024-03-23T03:29:57;97922.59;;;3.41;57.38
75424;BME280;64005;55.160;36.002;2024-03-23T03:32:27;97926.16;;;3.42;57.44
75424;BME280;64005;55.160;36.002;2024-03-23T03:34:53;97922.59;;;3.41;57.66
75424;BME280;64005;55.160;36.002;2024-03-23T03:37:20;97913.22;;;3.42;57.31
75424;BME280;64005;55.160;36.002;2024-03-23T03:39:47;97903.03;;;3.43;57.48
75424;BME280;64005;55.160;36.002;2024-03-23T03:42:14;97900.78;;;3.45;57.48
75424;BME280;64005;55.160;36.002;2024-03-23T03:44:41;97901.59;;;3.45;57.37
75424;BME280;64005;55.160;36.002;2024-03-23T03:47:08;97896.88;;;3.46;57.58
75424;BME280;64005;55.160;36.002;2024-03-23T03:49:35;97894.13;;;3.46;57.52
75424;BME280;64005;55.160;36.002;2024-03-23T03:52:03;97895.28;;;3.45;57.64
75424;BME280;64005;55.160;36.002;2024-03-23T03:54:30;97882.00;;;3.47;57.85
75424;BME280;64005;55.160;36.002;2024-03-23T03:56:57;97883.50;;;3.53;57.81
75424;BME280;64005;55.160;36.002;2024-03-23T03:59:24;97876.41;;;3.52;57.83
75424;BME280;64005;55.160;36.002;2024-03-23T04:01:51;97869.44;;;3.54;57.75
75424;BME280;64005;55.160;36.002;2024-03-23T04:04:17;97865.56;;;3.55;58.24
75424;BME280;64005;55.160;36.002;2024-03-23T04:06:48;97849.88;;;3.56;58.26
75424;BME280;64005;55.160;36.002;2024-03-23T04:09:14;97849.38;;;3.54;58.20
75424;BME280;64005;55.160;36.002;2024-03-23T04:11:42;97850.50;;;3.53;58.94
75424;BME280;64005;55.160;36.002;2024-03-23T04:14:08;97852.78;;;3.51;58.58
75424;BME280;64005;55.160;36.002;2024-03-23T04:16:36;97847.94;;;3.56;58.41
75424;BME280;64005;55.160;36.002;2024-03-23T04:19:02;97849.72;;;3.61;58.00
75424;BME280;64005;55.160;36.002;2024-03-23T04:21:29;97847.97;;;3.65;58.24
75424;BME280;64005;55.160;36.002;2024-03-23T04:23:57;97842.47;;;3.65;58.13
75424;BME280;64005;55.160;36.002;2024-03-23T04:26:24;97841.97;;;3.63;58.50
75424;BME280;64005;55.160;36.002;2024-03-23T04:28:51;97835.50;;;3.68;58.16
75424;BME280;64005;55.160;36.002;2024-03-23T04:31:18;97842.16;;;3.75;58.29
75424;BME280;64005;55.160;36.002;2024-03-23T04:33:44;97833.59;;;3.77;58.08
75424;BME280;64005;55.160;36.002;2024-03-23T04:36:12;97825.66;;;3.75;58.24
75424;BME280;64005;55.160;36.002;2024-03-23T04:38:38;97820.47;;;3.74;58.74
75424;BME280;64005;55.160;36.002;2024-03-23T04:41:07;97829.84;;;3.73;58.44
75424;BME280;64005;55.160;36.002;2024-03-23T04:43:34;97820.47;;;3.74;58.45
75424;BME280;64005;55.160;36.002;2024-03-23T04:46:02;97813.84;;;3.75;58.74
75424;BME280;64005;55.160;36.002;2024-03-23T04:48:28;97810.78;;;3.76;58.18
75424;BME280;64005;55.160;36.002;2024-03-23T04:50:57;97812.41;;;3.77;58.66
75424;BME280;64005;55.160;36.002;2024-03-23T04:53:25;97819.84;;;3.77;58.60
75424;BME280;64005;55.160;36.002;2024-03-23T04:55:54;97814.84;;;3.79;58.82
75424;BME280;64005;55.160;36.002;2024-03-23T04:58:23;97823.56;;;3.81;58.66
75424;BME280;64005;55.160;36.002;2024-03-23T05:00:53;97810.47;;;3.86;58.92
75424;BME280;64005;55.160;36.002;2024-03-23T05:05:56;97804.47;;;3.93;58.88
75424;BME280;64005;55.160;36.002;2024-03-23T05:08:24;97806.78;;;3.91;58.94
75424;BME280;64005;55.160;36.002;2024-03-23T05:10:50;97811.78;;;3.89;58.93
75424;BME280;64005;55.160;36.002;2024-03-23T05:13:17;97802.91;;;3.92;58.66
75424;BME280;64005;55.160;36.002;2024-03-23T05:15:51;97793.66;;;3.96;59.26
75424;BME280;64005;55.160;36.002;2024-03-23T05:18:19;97799.31;;;4.00;58.78
75424;BME280;64005;55.160;36.002;2024-03-23T05:20:46;97796.44;;;4.05;59.11
75424;BME280;64005;55.160;36.002;2024-03-23T05:23:13;97793.69;;;4.05;59.23
75424;BME280;64005;55.160;36.002;2024-03-23T05:25:40;97793.31;;;4.07;58.91
75424;BME280;64005;55.160;36.002;2024-03-23T05:28:07;97784.44;;;4.10;59.34
75424;BME280;64005;55.160;36.002;2024-03-23T05:30:34;97787.19;;;4.10;59.57
75424;BME280;64005;55.160;36.002;2024-03-23T05:33:03;97792.53;;;4.15;59.66
75424;BME280;64005;55.160;36.002;2024-03-23T05:35:29;97785.72;;;4.21;58.99
75424;BME280;64005;55.160;36.002;2024-03-23T05:37:57;97777.66;;;4.24;59.74
75424;BME280;64005;55.160;36.002;2024-03-23T05:40:25;97789.13;;;4.26;59.45
75424;BME280;64005;55.160;36.002;2024-03-23T05:42:53;97782.97;;;4.29;59.37
75424;BME280;64005;55.160;36.002;2024-03-23T05:45:19;97778.28;;;4.30;59.68
75424;BME280;64005;55.160;36.002;2024-03-23T05:47:46;97777.78;;;4.36;59.87
75424;BME280;64005;55.160;36.002;2024-03-23T05:50:14;97775.69;;;4.42;59.48
75424;BME280;64005;55.160;36.002;2024-03-23T05:52:42;97765.63;;;4.46;60.26
75424;BME280;64005;55.160;36.002;2024-03-23T05:55:09;97771.78;;;4.52;59.73
75424;BME280;64005;55.160;36.002;2024-03-23T05:57:36;97766.25;;;4.60;60.21
75424;BME280;64005;55.160;36.002;2024-03-23T06:00:04;97768.50;;;4.67;59.75
75424;BME280;64005;55.160;36.002;2024-03-23T06:02:36;97773.84;;;4.72;59.92
75424;BME280;64005;55.160;36.002;2024-03-23T06:05:03;97770.75;;;4.73;59.86
75424;BME280;64005;55.160;36.002;2024-03-23T06:07:32;97761.97;;;4.80;59.63
75424;BME280;64005;55.160;36.002;2024-03-23T06:09:59;97757.91;;;4.86;60.40
75424;BME280;64005;55.160;36.002;2024-03-23T06:12:26;97759.81;;;4.94;60.39
75424;BME280;64005;55.160;36.002;2024-03-23T06:14:52;97757.22;;;4.98;59.47
75424;BME280;64005;55.160;36.002;2024-03-23T06:17:20;97756.56;;;5.01;59.61
75424;BME280;64005;55.160;36.002;2024-03-23T06:19:46;97753.63;;;5.06;59.18
75424;BME280;64005;55.160;36.002;2024-03-23T06:22:15;97759.47;;;5.04;59.39
75424;BME280;64005;55.160;36.002;2024-03-23T06:24:43;97742.78;;;5.01;60.00
75424;BME280;64005;55.160;36.002;2024-03-23T06:27:11;97745.53;;;5.01;59.88
75424;BME280;64005;55.160;36.002;2024-03-23T06:29:37;97738.56;;;5.03;59.86
75424;BME280;64005;55.160;36.002;2024-03-23T06:32:05;97738.25;;;5.05;60.08
75424;BME280;64005;55.160;36.002;2024-03-23T06:34:31;97732.53;;;5.10;60.32
75424;BME280;64005;55.160;36.002;2024-03-23T06:36:58;97730.91;;;5.09;59.91
75424;BME280;64005;55.160;36.002;2024-03-23T06:39:24;97729.28;;;5.08;60.62
75424;BME280;64005;55.160;36.002;2024-03-23T06:41:54;97731.25;;;5.07;60.16
75424;BME280;64005;55.160;36.002;2024-03-23T06:44:20;97720.69;;;5.09;59.99
75424;BME280;64005;55.160;36.002;2024-03-23T06:46:48;97724.47;;;5.05;59.83
75424;BME280;64005;55.160;36.002;2024-03-23T06:49:15;97727.84;;;5.10;59.98
75424;BME280;64005;55.160;36.002;2024-03-23T06:51:42;97729.25;;;5.16;60.24
75424;BME280;64005;55.160;36.002;2024-03-23T06:54:09;97728.59;;;5.19;60.72
75424;BME280;64005;55.160;36.002;2024-03-23T06:56:36;97725.00;;;5.19;60.17
75424;BME280;64005;55.160;36.002;2024-03-23T06:59:04;97725.81;;;5.19;60.98
75424;BME280;64005;55.160;36.002;2024-03-23T07:01:31;97728.41;;;5.25;60.09
75424;BME280;64005;55.160;36.002;2024-03-23T07:03:58;97723.72;;;5.25;60.40
75424;BME280;64005;55.160;36.002;2024-03-23T07:06:25;97724.66;;;5.29;59.97
75424;BME280;64005;55.160;36.002;2024-03-23T07:08:52;97718.00;;;5.30;60.19
75424;BME280;64005;55.160;36.002;2024-03-23T07:11:19;97710.06;;;5.29;60.17
75424;BME280;64005;55.160;36.002;2024-03-23T07:13:46;97708.09;;;5.29;60.75
75424;BME280;64005;55.160;36.002;2024-03-23T07:16:16;97707.09;;;5.34;60.22
75424;BME280;64005;55.160;36.002;2024-03-23T07:18:42;97710.47;;;5.39;60.37
75424;BME280;64005;55.160;36.002;2024-03-23T07:21:10;97713.06;;;5.44;60.60
75424;BME280;64005;55.160;36.002;2024-03-23T07:23:36;97712.69;;;5.46;60.40
75424;BME280;64005;55.160;36.002;2024-03-23T07:26:05;97699.59;;;5.43;60.37
75424;BME280;64005;55.160;36.002;2024-03-23T07:28:31;97709.63;;;5.47;60.81
75424;BME280;64005;55.160;36.002;2024-03-23T07:31:03;97692.13;;;5.43;60.80
75424;BME280;64005;55.160;36.002;2024-03-23T07:33:32;97703.56;;;5.54;61.18
75424;BME280;64005;55.160;36.002;2024-03-23T07:35:59;97697.72;;;5.55;60.79
75424;BME280;64005;55.160;36.002;2024-03-23T07:38:26;97703.56;;;5.54;60.60
75424;BME280;64005;55.160;36.002;2024-03-23T07:41:03;97699.00;;;5.58;60.52
75424;BME280;64005;55.160;36.002;2024-03-23T07:43:30;97696.84;;;5.64;61.19
75424;BME280;64005;55.160;36.002;2024-03-23T07:45:57;97695.34;;;5.66;61.29
75424;BME280;64005;55.160;36.002;2024-03-23T07:48:23;97697.25;;;5.74;61.67
75424;BME280;64005;55.160;36.002;2024-03-23T07:51:00;97689.78;;;5.75;60.98
75424;BME280;64005;55.160;36.002;2024-03-23T07:53:27;97697.53;;;5.81;61.44
75424;BME280;64005;55.160;36.002;2024-03-23T07:55:55;97682.09;;;5.80;60.56
75424;BME280;64005;55.160;36.002;2024-03-23T07:58:22;97687.25;;;5.90;61.34
75424;BME280;64005;55.160;36.002;2024-03-23T08:00:49;97686.13;;;5.91;61.44
75424;BME280;64005;55.160;36.002;2024-03-23T08:03:16;97685.09;;;5.96;60.55
75424;BME280;64005;55.160;36.002;2024-03-23T08:05:43;97681.53;;;5.95;60.97
75424;BME280;64005;55.160;36.002;2024-03-23T08:08:11;97675.09;;;5.91;61.60
75424;BME280;64005;55.160;36.002;2024-03-23T08:10:47;97678.00;;;5.86;61.33
75424;BME280;64005;55.160;36.002;2024-03-23T08:13:14;97677.47;;;5.93;60.88
75424;BME280;64005;55.160;36.002;2024-03-23T08:15:41;97683.25;;;6.00;61.41
75424;BME280;64005;55.160;36.002;2024-03-23T08:18:08;97670.16;;;5.97;61.24
75424;BME280;64005;55.160;36.002;2024-03-23T08:20:35;97670.97;;;5.97;61.23
75424;BME280;64005;55.160;36.002;2024-03-23T08:23:01;97671.91;;;6.02;61.61
75424;BME280;64005;55.160;36.002;2024-03-23T08:25:32;97664.41;;;6.02;61.28
75424;BME280;64005;55.160;36.002;2024-03-23T08:27:59;97664.69;;;6.09;60.78
75424;BME280;64005;55.160;36.002;2024-03-23T08:30:27;97672.28;;;6.12;61.91
75424;BME280;64005;55.160;36.002;2024-03-23T08:32:54;97669.31;;;6.17;61.84
75424;BME280;64005;55.160;36.002;2024-03-23T08:35:21;97676.09;;;6.20;61.13
75424;BME280;64005;55.160;36.002;2024-03-23T08:37:47;97665.88;;;6.20;61.46
75424;BME280;64005;55.160;36.002;2024-03-23T08:40:15;97666.59;;;6.29;62.03
75424;BME280;64005;55.160;36.002;2024-03-23T08:42:42;97656.72;;;6.41;61.47
75424;BME280;64005;55.160;36.002;2024-03-23T08:45:10;97659.38;;;6.49;61.64
75424;BME280;64005;55.160;36.002;2024-03-23T08:47:36;97663.66;;;6.59;61.96
75424;BME280;64005;55.160;36.002;2024-03-23T08:50:04;97659.50;;;6.65;61.98
75424;BME280;64005;55.160;36.002;2024-03-23T08:52:31;97660.22;;;6.74;61.40
75424;BME280;64005;55.160;36.002;2024-03-23T08:54:58;97657.69;;;6.81;61.97
75424;BME280;64005;55.160;36.002;2024-03-23T08:57:24;97660.59;;;6.85;61.79
75424;BME280;64005;55.160;36.002;2024-03-23T08:59:53;97650.13;;;6.90;61.95
75424;BME280;64005;55.160;36.002;2024-03-23T09:02:19;97650.94;;;6.91;61.73
75424;BME280;64005;55.160;36.002;2024-03-23T09:04:47;97653.94;;;6.98;61.90
75424;BME280;64005;55.160;36.002;2024-03-23T09:07:13;97650.13;;;7.02;61.53
75424;BME280;64005;55.160;36.002;2024-03-23T09:09:40;97640.09;;;6.98;61.47
75424;BME280;64005;55.160;36.002;2024-03-23T09:12:07;97645.16;;;6.96;61.66
75424;BME280;64005;55.160;36.002;2024-03-23T09:14:34;97629.81;;;6.98;61.67
75424;BME280;64005;55.160;36.002;2024-03-23T09:17:02;97633.75;;;6.97;61.37
75424;BME280;64005;55.160;36.002;2024-03-23T09:19:31;97636.28;;;7.02;61.80
75424;BME280;64005;55.160;36.002;2024-03-23T09:21:57;97636.97;;;6.99;61.77
75424;BME280;64005;55.160;36.002;2024-03-23T09:24:25;97636.97;;;6.99;61.71
75424;BME280;64005;55.160;36.002;2024-03-23T09:26:51;97645.97;;;6.96;61.62
75424;BME280;64005;55.160;36.002;2024-03-23T09:29:19;97641.13;;;6.93;61.35
75424;BME280;64005;55.160;36.002;2024-03-23T09:31:45;97636.28;;;6.90;61.73
75424;BME280;64005;55.160;36.002;2024-03-23T09:34:14;97633.16;;;6.92;61.78
75424;BME280;64005;55.160;36.002;2024-03-23T09:36:41;97620.97;;;6.93;62.18
75424;BME280;64005;55.160;36.002;2024-03-23T09:39:08;97620.28;;;6.96;62.23
75424;BME280;64005;55.160;36.002;2024-03-23T09:41:35;97617.63;;;6.99;62.04
75424;BME280;64005;55.160;36.002;2024-03-23T09:44:02;97618.00;;;6.98;61.62
75424;BME280;64005;55.160;36.002;2024-03-23T09:46:30;97627.06;;;6.98;62.09
75424;BME280;64005;55.160;36.002;2024-03-23T09:49:00;97613.25;;;6.98;62.26
75424;BME280;64005;55.160;36.002;2024-03-23T09:51:29;97609.78;;;7.01;62.27
75424;BME280;64005;55.160;36.002;2024-03-23T09:53:56;97611.41;;;7.02;62.45
75424;BME280;64005;55.160;36.002;2024-03-23T09:56:23;97601.97;;;7.03;62.53
75424;BME280;64005;55.160;36.002;2024-03-23T09:58:50;97595.13;;;7.13;61.97
75424;BME280;64005;55.160;36.002;2024-03-23T10:01:17;97597.22;;;7.16;62.20
75424;BME280;64005;55.160;36.002;2024-03-23T10:03:45;97600.09;;;7.19;61.69
75424;BME280;64005;55.160;36.002;2024-03-23T10:06:11;97595.69;;;7.18;61.95
75424;BME280;64005;55.160;36.002;2024-03-23T10:08:40;97595.59;;;7.15;61.59
75424;BME280;64005;55.160;36.002;2024-03-23T10:11:13;97603.44;;;7.13;61.92
75424;BME280;64005;55.160;36.002;2024-03-23T10:13:42;97603.59;;;7.04;61.95
75424;BME280;64005;55.160;36.002;2024-03-23T10:16:10;97602.78;;;7.04;61.59
75424;BME280;64005;55.160;36.002;2024-03-23T10:18:37;97600.00;;;7.04;61.70
75424;BME280;64005;55.160;36.002;2024-03-23T10:21:08;97599.31;;;6.95;61.73
75424;BME280;64005;55.160;36.002;2024-03-23T10:23:38;97590.44;;;6.89;62.17
75424;BME280;64005;55.160;36.002;2024-03-23T10:26:17;97599.31;;;6.83;62.06
75424;BME280;64005;55.160;36.002;2024-03-23T10:28:55;97585.94;;;6.72;62.29
75424;BME280;64005;55.160;36.002;2024-03-23T10:31:23;97582.03;;;6.73;62.39
75424;BME280;64005;55.160;36.002;2024-03-23T10:33:51;97585.84;;;6.69;62.03
75424;BME280;64005;55.160;36.002;2024-03-23T10:36:20;97594.38;;;6.64;62.12
75424;BME280;64005;55.160;36.002;2024-03-23T10:38:50;97587.66;;;6.65;62.53
75424;BME280;64005;55.160;36.002;2024-03-23T10:41:18;97588.47;;;6.65;62.33
75424;BME280;64005;55.160;36.002;2024-03-23T10:43:46;97592.41;;;6.64;62.26
75424;BME280;64005;55.160;36.002;2024-03-23T10:46:13;97585.94;;;6.60;62.19
75424;BME280;64005;55.160;36.002;2024-03-23T10:48:41;97581.56;;;6.59;62.33
75424;BME280;64005;55.160;36.002;2024-03-23T10:51:10;97584.09;;;6.52;62.15
75424;BME280;64005;55.160;36.002;2024-03-23T10:53:37;97579.63;;;6.48;62.68
75424;BME280;64005;55.160;36.002;2024-03-23T10:56:05;97573.63;;;6.46;62.91
75424;BME280;64005;55.160;36.002;2024-03-23T10:58:38;97575.56;;;6.45;62.72
75424;BME280;64005;55.160;36.002;2024-03-23T11:01:05;97561.19;;;6.52;62.17
75424;BME280;64005;55.160;36.002;2024-03-23T11:03:35;97558.56;;;6.55;62.79
75424;BME280;64005;55.160;36.002;2024-03-23T11:06:03;97554.31;;;6.58;62.31
75424;BME280;64005;55.160;36.002;2024-03-23T11:08:32;97560.75;;;6.62;62.60
75424;BME280;64005;55.160;36.002;2024-03-23T11:11:17;97560.16;;;6.68;62.48
75424;BME280;64005;55.160;36.002;2024-03-23T11:13:50;97568.81;;;6.67;62.61
75424;BME280;64005;55.160;36.002;2024-03-23T11:16:21;97558.31;;;6.72;62.32
75424;BME280;64005;55.160;36.002;2024-03-23T11:18:51;97558.09;;;6.77;62.39
75424;BME280;64005;55.160;36.002;2024-03-23T11:21:51;97554.06;;;6.75;62.67
75424;BME280;64005;55.160;36.002;2024-03-23T11:24:20;97554.31;;;6.70;62.78
75424;BME280;64005;55.160;36.002;2024-03-23T11:26:48;97550.97;;;6.76;62.50
75424;BME280;64005;55.160;36.002;2024-03-23T11:29:17;97550.38;;;6.83;62.42
75424;BME280;64005;55.160;36.002;2024-03-23T11:31:47;97551.19;;;6.84;62.63
75424;BME280;64005;55.160;36.002;2024-03-23T11:34:16;97549.56;;;6.83;62.15
75424;BME280;64005;55.160;36.002;2024-03-23T11:36:42;97547.38;;;6.88;62.49
75424;BME280;64005;55.160;36.002;2024-03-23T11:39:13;97552.56;;;6.90;62.54
75424;BME280;64005;55.160;36.002;2024-03-23T11:41:48;97542.31;;;6.90;62.98
75424;BME280;64005;55.160;36.002;2024-03-23T11:44:19;97548.88;;;6.98;62.82
75424;BME280;64005;55.160;36.002;2024-03-23T11:46:46;97553.22;;;6.99;62.79
75424;BME280;64005;55.160;36.002;2024-03-23T11:49:23;97542.75;;;6.92;62.46
75424;BME280;64005;55.160;36.002;2024-03-23T11:51:50;97536.41;;;6.92;62.83
75424;BME280;64005;55.160;36.002;2024-03-23T11:54:20;97543.94;;;6.91;62.85
75424;BME280;64005;55.160;36.002;2024-03-23T11:56:57;97541.16;;;6.91;63.08
75424;BME280;64005;55.160;36.002;2024-03-23T11:59:33;97543.34;;;6.86;62.77
75424;BME280;64005;55.160;36.002;2024-03-23T12:02:00;97535.75;;;6.83;62.77
75424;BME280;64005;55.160;36.002;2024-03-23T12:04:27;97539.75;;;6.85;62.99
75424;BME280;64005;55.160;36.002;2024-03-23T12:07:09;97540.34;;;6.91;63.08
75424;BME280;64005;55.160;36.002;2024-03-23T12:09:37;97540.69;;;6.89;63.27
75424;BME280;64005;55.160;36.002;2024-03-23T12:12:10;97541.28;;;6.83;62.82
75424;BME280;64005;55.160;36.002;2024-03-23T12:14:41;97537.94;;;6.77;63.05
75424;BME280;64005;55.160;36.002;2024-03-23T12:17:09;97539.09;;;6.76;63.01
75424;BME280;64005;55.160;36.002;2024-03-23T12:19:37;97549.69;;;6.74;62.52
75424;BME280;64005;55.160;36.002;2024-03-23T12:22:04;97534.25;;;6.73;62.56
75424;BME280;64005;55.160;36.002;2024-03-23T12:24:31;97538.06;;;6.68;62.77
75424;BME280;64005;55.160;36.002;2024-03-23T12:27:01;97536.34;;;6.64;63.04
75424;BME280;64005;55.160;36.002;2024-03-23T12:29:29;97530.69;;;6.60;62.93
75424;BME280;64005;55.160;36.002;2024-03-23T12:31:59;97530.59;;;6.57;63.08
75424;BME280;64005;55.160;36.002;2024-03-23T12:34:27;97538.19;;;6.60;63.04
75424;BME280;64005;55.160;36.002;2024-03-23T12:36:53;97532.22;;;6.58;62.89
75424;BME280;64005;55.160;36.002;2024-03-23T12:39:20;97531.16;;;6.62;63.01
75424;BME280;64005;55.160;36.002;2024-03-23T12:41:48;97528.41;;;6.62;63.66
75424;BME280;64005;55.160;36.002;2024-03-23T12:44:15;97539.31;;;6.59;62.92
75424;BME280;64005;55.160;36.002;2024-03-23T12:46:42;97534.59;;;6.59;63.52
75424;BME280;64005;55.160;36.002;2024-03-23T12:49:11;97535.75;;;6.58;63.45
75424;BME280;64005;55.160;36.002;2024-03-23T12:51:38;97545.22;;;6.57;63.26
75424;BME280;64005;55.160;36.002;2024-03-23T12:54:05;97529.78;;;6.56;63.38
75424;BME280;64005;55.160;36.002;2024-03-23T12:56:31;97536.13;;;6.57;63.97
75424;BME280;64005;55.160;36.002;2024-03-23T12:58:59;97537.84;;;6.61;63.54
75424;BME280;64005;55.160;36.002;2024-03-23T13:01:25;97529.22;;;6.63;63.58
75424;BME280;64005;55.160;36.002;2024-03-23T13:03:53;97532.19;;;6.70;63.21
75424;BME280;64005;55.160;36.002;2024-03-23T13:06:20;97530.56;;;6.81;63.34
75424;BME280;64005;55.160;36.002;2024-03-23T13:08:48;97521.59;;;6.84;63.64
75424;BME280;64005;55.160;36.002;2024-03-23T13:11:16;97532.75;;;6.88;63.64
75424;BME280;64005;55.160;36.002;2024-03-23T13:13:43;97523.41;;;6.92;63.69
75424;BME280;64005;55.160;36.002;2024-03-23T13:16:10;97524.78;;;6.98;63.61
75424;BME280;64005;55.160;36.002;2024-03-23T13:18:38;97526.50;;;7.03;63.88
75424;BME280;64005;55.160;36.002;2024-03-23T13:21:05;97527.16;;;7.12;63.27
75424;BME280;64005;55.160;36.002;2024-03-23T13:23:33;97529.34;;;7.18;63.46
75424;BME280;64005;55.160;36.002;2024-03-23T13:26:01;97530.59;;;7.21;63.15
75424;BME280;64005;55.160;36.002;2024-03-23T13:28:29;97523.94;;;7.22;63.56
75424;BME280;64005;55.160;36.002;2024-03-23T13:30:56;97518.84;;;7.24;63.83
75424;BME280;64005;55.160;36.002;2024-03-23T13:33:30;97514.47;;;7.23;63.57
75424;BME280;64005;55.160;36.002;2024-03-23T13:35:58;97523.94;;;7.22;63.50
75424;BME280;64005;55.160;36.002;2024-03-23T13:38:26;97509.06;;;7.14;63.72
75424;BME280;64005;55.160;36.002;2024-03-23T13:40:54;97511.59;;;7.19;63.37
75424;BME280;64005;55.160;36.002;2024-03-23T13:43:23;97516.78;;;7.21;63.19
75424;BME280;64005;55.160;36.002;2024-03-23T13:45:52;97512.66;;;7.15;63.49
75424;BME280;64005;55.160;36.002;2024-03-23T13:48:21;97514.31;;;7.04;63.41
75424;BME280;64005;55.160;36.002;2024-03-23T13:50:47;97510.03;;;6.94;63.93
75424;BME280;64005;55.160;36.002;2024-03-23T13:53:15;97513.53;;;6.91;63.49
75424;BME280;64005;55.160;36.002;2024-03-23T13:55:46;97515.81;;;6.89;63.19
75424;BME280;64005;55.160;36.002;2024-03-23T13:58:16;97517.31;;;6.87;63.98